• Join FlightAware (Why Join?)
  • Login
  • US Flag 
05:36PM EST


 

Airport Tracker/Info


-or-


 

Live Flight TrackerFlight Track Log ✈ EJA328 ✈ 25-Mar-2014 ✈ KLAS - KSDL

Flight Track Log - Related Links

Times and Time Zones

All times are in EDT time to prevent confusion due to time zone crossing. See the EJA328 flight status page for this flight to view local times or setup timezone preferences in your user account.

Time Position Orientation Groundspeed Altitude Reporting Facility
EDT Latitude Longitude Course Direction KTS MPH feet Rate Location/Type
06:05PM 36.0706 -115.1728 90° East 157 181 3,600  Level Los Angeles Center
06:05PM 36.0683 -115.1739 202° Southwest 144 166 3,900 3,180 Climbing Los Angeles Center
06:06PM 36.0133 -115.2075 206° Southwest 237 273 7,200 3,180 Climbing Los Angeles Center
06:06PM 36.0117 -115.2117 244° Southwest 221 254 7,200 1,320 Level Los Angeles Center
06:07PM 35.9697 -115.2750 231° Southwest 275 316 8,600 1,620 Climbing Los Angeles Center
06:07PM 35.9656 -115.2747 177° South 262 302 8,900 3,600 Climbing Los Angeles Center
06:08PM 35.8819 -114.9363 131° Southeast  Level Estimated
06:08PM 35.9189 -115.2069 130° Southeast 268 308 12,500  Level Los Angeles Center
06:09PM 35.7971 -114.8178 83° East  Level Estimated
06:09PM 35.9206 -115.1006 89° East 314 361 15,200  Level Los Angeles Center
06:10PM 35.7123 -114.6997 82° East  Level Estimated
06:10PM 35.9222 -114.9767 89° East 337 388 18,600  Level Los Angeles Center
06:11PM 35.6524 -114.6165 90° East  Level Estimated
06:11PM 35.9219 -114.8714 90° East 342 394 21,300  Level Los Angeles Center
06:13PM 35.9222 -114.7292 90° East 342 394 24,600 1,740 Climbing Los Angeles Center
06:14PM 35.9219 -114.6000 90° East 366 421 25,000 180 Climbing Los Angeles Center
06:15PM 35.9242 -114.4522 89° East 418 481 25,000  Level Los Angeles Center
06:16PM 35.9236 -114.3042 90° East 430 495 25,000  Level Los Angeles Center
06:17PM 35.9239 -114.1600 90° East 427 491 25,000  Level Los Angeles Center
06:18PM 35.9236 -114.0158 90° East 426 490 25,000  Level Los Angeles Center
06:19PM 35.9144 -113.8444 94° East 423 487 25,000  Level Los Angeles Center
06:20PM 35.8833 -113.7056 105° East 423 487 25,000  Level Los Angeles Center
06:21PM 35.8539 -113.5697 105° East 423 487 25,000  Level Los Angeles Center
06:22PM 35.8253 -113.4267 104° East 422 486 25,000  Level Los Angeles Center
06:23PM 35.7972 -113.2908 104° East 422 486 25,000  Level Los Angeles Center
06:29PM 35.6232 -112.4685 105° East 417 480 25,000  Level FlightAware ADS-B
06:29PM 35.6031 -112.4124 128° Southeast 416 479 25,000  Level FlightAware ADS-B
06:33PM 35.6651 -112.6632 165° South 416 479 25,000 -240 Level FlightAware ADS-B (KPRC)
06:37PM 34.7668 -112.1076 165° South 421 484 23,200 -780 Descending FlightAware ADS-B (KPRC)
06:37PM 34.6908 -112.0825 165° South 422 486 21,700 -2,280 Descending FlightAware ADS-B (KPRC)
06:38PM 34.6169 -112.0582 165° South 408 470 20,200 -2,160 Descending FlightAware ADS-B (KPRC)
06:39PM 34.5631 -112.0405 165° South 398 458 19,200 -1,920 Descending FlightAware ADS-B (KPRC)
06:39PM 34.4922 -112.0173 165° South 391 450 18,000 -1,980 Descending FlightAware ADS-B (KPRC)
06:40PM 34.4403 -112.0003 165° South 380 437 16,900 -2,100 Descending FlightAware ADS-B (KPRC)
06:40PM 34.3936 -111.9850 165° South 376 433 15,900 -2,160 Descending FlightAware ADS-B (KPRC)
06:41PM 34.3293 -111.9640 165° South 376 433 14,600 -1,980 Descending FlightAware ADS-B (KPRC)
06:42PM 34.2573 -111.9405 165° South 342 394 13,300 -1,500 Descending FlightAware ADS-B (KPRC)
06:43PM 34.1667 -111.9167 165° South 312 359 12,000 -660 Descending Phoenix TRACON
06:44PM 34.0833 -111.9333 189° South 299 344 11,900 -780 Descending Phoenix TRACON
06:44PM 34.0272 -111.9311 178° South 293 337 10,600 -1,740 Descending Albuquerque Center
06:45PM 33.9528 -111.9364 183° South 277 319 8,800 -1,800 Descending Albuquerque Center
06:47PM 33.8797 -111.9414 183° South 272 313 7,000 -1,440 Descending Albuquerque Center
06:48PM 33.8019 -111.9444 182° South 236 272 5,900 -660 Descending Albuquerque Center
06:49PM 33.7525 -111.9192 157° South 196 226 5,700 -840 Descending Albuquerque Center
06:50PM 33.7106 -111.8881 148° Southeast 181 208 4,200 -1,200 Descending Albuquerque Center
06:51PM 33.6753 -111.8656 152° Southeast 155 178 3,300 -720 Descending Albuquerque Center
06:52PM 33.6467 -111.8675 183° South 153 176 2,800 -840 Descending Albuquerque Center
06:53PM 33.6347 -111.8986 245° Southwest 130 150 1,600 -1,200 Descending Albuquerque Center
06:55PM 33.6229 -111.9105 40° Northeast  Level Estimated
07:02PM 33.6229 -111.9105 North  Level Estimated
07:03PM 33.6229 -111.9105 North  Level Estimated
07:04PM 33.6229 -111.9105 North  Level Estimated
07:05PM 33.6229 -111.9105 North  Level Estimated
07:06PM 33.6229 -111.9105 North  Level Estimated
07:07PM 33.6229 -111.9105 North  Level Estimated